Home   Weather   Netherlands   's-Hertogenbosch   Past weeks
Flag for Netherlands

Past Weather in 's-Hertogenbosch, Netherlands — Yesterday and Last 2 Weeks

Currently: 61 °F. Refreshingly cool. (Weather station: Volkel, Netherlands). See more current weather

Past Weather in 's-Hertogenbosch — Graph

°F

's-Hertogenbosch Temperature Yesterday

Maximum temperature yesterday: 55 °F (at 5:55 pm)
Minimum temperature yesterday: 39 °F (at 4:55 am)
Average temperature yesterday: 47 °F

High & Low Weather Summary for the Past Weeks

 TemperatureHumidityPressure
High59 °F (Apr 18, 2:55 pm)100% (Apr 5, 10:04 pm)30.51 "Hg (Apr 5, 10:04 pm)
Low27 °F (Apr 13, 5:25 am)33% (Apr 16, 3:42 pm)29.74 "Hg (Apr 10, 11:25 pm)
Average41 °F76%30.14 "Hg
* Reported Apr 5 11:16 am — Apr 20 11:55 am, 's-Hertogenbosch. Weather by CustomWeather, © 2021

Note: Actual official high and low records may vary slightly from our data, if they occured in-between our weather recording intervals... More about our weather records

's-Hertogenbosch Weather History for the Previous 24 Hours

Scroll right to see more
 ConditionsComfort  
Time TempWeatherWind HumidityBarometerVisibility
11:55 am
Tue, Apr 20
59 °FCool.3 mph63%30.07 "HgN/A
11:25 am57 °FCool.3 mph72%30.07 "HgN/A
10:56 am55 °FHaze.2 mph67%30.07 "Hg5 mi
10:25 am54 °FHaze.1 mph77%30.07 "Hg4 mi
9:55 am52 °FFog.1 mph82%30.07 "Hg3 mi
9:25 am48 °FFog.3 mph87%30.07 "Hg3 mi
8:58 am46 °FFog.3 mph87%30.07 "Hg3 mi
8:25 am43 °FFog.2 mph93%30.07 "Hg2 mi
7:56 am37 °FFog.2 mph100%30.07 "Hg2 mi
7:55 am37 °FFog.2 mph100%30.07 "Hg2 mi
7:25 am36 °FFog.2 mph100%30.07 "Hg2 mi
7:12 am36 °FFog.1 mph93%30.07 "Hg2 mi
6:59 am34 °FFog.2 mph100%30.07 "Hg1 mi
6:42 am34 °FFog.2 mph100%30.07 "Hg0 mi
6:30 am34 °FFog.1 mph100%30.07 "Hg2 mi
6:10 am34 °FFog.1 mph100%30.07 "Hg4 mi
5:44 am36 °FFog.1 mph93%30.07 "Hg3 mi
5:31 am36 °FFog.1 mph100%30.07 "Hg1 mi
5:16 am36 °FFog.1 mph100%30.07 "Hg1 mi
5:04 am36 °FFog.1 mph100%30.07 "Hg1 mi
4:29 am36 °FFog.2 mph100%30.07 "Hg2 mi
3:56 am37 °FFog.1 mph100%30.07 "Hg0 mi
3:32 am37 °FFog.1 mph100%30.07 "Hg1 mi
3:18 am39 °FFog.1 mph93%30.07 "Hg2 mi
3:08 am39 °FFog.No wind100%30.07 "Hg2 mi
2:25 am39 °FFog.No wind100%30.07 "Hg2 mi
1:55 am39 °FFog.2 mph100%30.07 "Hg1 mi
1:39 am41 °FFog.No wind100%30.09 "Hg1 mi
1:29 am41 °FFog.1 mph100%30.09 "Hg2 mi
1:25 am41 °FFog.1 mph100%30.09 "Hg1 mi
1:07 am41 °FFog.1 mph100%30.09 "Hg2 mi
12:56 am41 °FFog.1 mph100%30.09 "Hg2 mi
12:38 am41 °FFog.1 mph100%30.09 "Hg2 mi
12:02 am43 °FFog.No wind93%30.09 "Hg1 mi
11:55 pm
Mon, Apr 19
43 °FFog.No wind100%30.09 "Hg3 mi
11:25 pm43 °FFog.1 mph100%30.09 "Hg4 mi
11:06 pm43 °FFog.1 mph100%30.09 "Hg2 mi
10:40 pm45 °FFog.2 mph93%30.09 "Hg3 mi
10:25 pm45 °FFog.2 mph100%30.09 "Hg2 mi
10:03 pm46 °FFog.1 mph93%30.09 "Hg4 mi
9:55 pm46 °FFog.1 mph93%30.09 "Hg4 mi
9:25 pm46 °FFog.1 mph93%30.09 "Hg6 mi
8:55 pm50 °FPassing clouds.2 mph88%30.09 "HgN/A
8:25 pm54 °FPartly sunny.2 mph77%30.09 "HgN/A
7:55 pm54 °FOvercast.2 mph77%30.09 "HgN/A
7:25 pm54 °FCloudy.2 mph82%30.09 "HgN/A
6:55 pm54 °FOvercast.3 mph77%30.09 "HgN/A
6:25 pm55 °FOvercast.3 mph72%30.09 "HgN/A
5:55 pm55 °FOvercast.5 mph72%30.09 "HgN/A
5:25 pm54 °FScattered clouds.2 mph77%30.09 "HgN/A
4:55 pm54 °FOvercast.3 mph72%30.09 "HgN/A
4:25 pm54 °FOvercast.2 mph72%30.09 "HgN/A
4:09 pm54 °FOvercast.3 mph77%30.12 "HgN/A
3:55 pm52 °FPartly sunny.3 mph82%30.12 "HgN/A
3:30 pm54 °FMore clouds than sun.3 mph82%30.12 "Hg6 mi
2:59 pm52 °FFog.5 mph82%30.12 "Hg4 mi
2:25 pm50 °FDrizzle. More clouds than sun.5 mph88%30.12 "Hg4 mi
1:56 pm50 °FFog.6 mph88%30.12 "Hg4 mi
1:35 pm52 °FFog.3 mph82%30.12 "Hg6 mi
Weather by CustomWeather, © 2021

See weather overview